sensor_id;sensor_type;location;lat;lon;timestamp;temperature;humidity
1534;DHT22;760;48.822;9.304;2023-04-06T04:05:24;-0.20;99.90
1534;DHT22;760;48.822;9.304;2023-04-06T04:07:51;-0.20;99.90
1534;DHT22;760;48.822;9.304;2023-04-06T04:10:17;-0.20;99.90
1534;DHT22;760;48.822;9.304;2023-04-06T04:12:43;-0.30;99.90
1534;DHT22;760;48.822;9.304;2023-04-06T04:15:09;-0.30;99.90
1534;DHT22;760;48.822;9.304;2023-04-06T04:17:34;-0.30;99.90
1534;DHT22;760;48.822;9.304;2023-04-06T04:20:00;-0.30;99.90
1534;DHT22;760;48.822;9.304;2023-04-06T04:22:25;-0.30;99.90
1534;DHT22;760;48.822;9.304;2023-04-06T04:24:53;-0.30;99.90
1534;DHT22;760;48.822;9.304;2023-04-06T04:27:18;-0.30;99.90
1534;DHT22;760;48.822;9.304;2023-04-06T04:29:44;-0.40;99.90
1534;DHT22;760;48.822;9.304;2023-04-06T04:32:10;-0.40;99.90
1534;DHT22;760;48.822;9.304;2023-04-06T04:34:35;-0.30;99.90
1534;DHT22;760;48.822;9.304;2023-04-06T04:37:01;-0.30;99.90
1534;DHT22;760;48.822;9.304;2023-04-06T04:39:27;-0.30;99.90
1534;DHT22;760;48.822;9.304;2023-04-06T04:41:52;-0.30;99.90
1534;DHT22;760;48.822;9.304;2023-04-06T04:44:19;-0.30;99.90
1534;DHT22;760;48.822;9.304;2023-04-06T04:46:45;-0.30;99.90
1534;DHT22;760;48.822;9.304;2023-04-06T04:49:10;-0.30;99.90
1534;DHT22;760;48.822;9.304;2023-04-06T04:51:36;-0.40;99.90
1534;DHT22;760;48.822;9.304;2023-04-06T04:54:02;-0.40;99.90
1534;DHT22;760;48.822;9.304;2023-04-06T04:56:27;-0.40;99.90
1534;DHT22;760;48.822;9.304;2023-04-06T04:58:54;-0.40;99.90
1534;DHT22;760;48.822;9.304;2023-04-06T05:01:20;-0.30;99.90
1534;DHT22;760;48.822;9.304;2023-04-06T05:03:46;-0.30;99.90
1534;DHT22;760;48.822;9.304;2023-04-06T05:06:12;-0.20;99.90
1534;DHT22;760;48.822;9.304;2023-04-06T05:08:37;-0.20;99.90
1534;DHT22;760;48.822;9.304;2023-04-06T05:11:03;0.00;99.90
1534;DHT22;760;48.822;9.304;2023-04-06T05:13:30;0.10;99.90
1534;DHT22;760;48.822;9.304;2023-04-06T05:15:56;0.30;99.90
1534;DHT22;760;48.822;9.304;2023-04-06T05:18:22;0.50;99.90
1534;DHT22;760;48.822;9.304;2023-04-06T05:20:48;0.70;99.90
1534;DHT22;760;48.822;9.304;2023-04-06T05:23:13;1.00;99.90
1534;DHT22;760;48.822;9.304;2023-04-06T05:25:40;1.20;99.90
1534;DHT22;760;48.822;9.304;2023-04-06T05:28:06;1.50;99.90
1534;DHT22;760;48.822;9.304;2023-04-06T05:30:31;1.80;99.90
1534;DHT22;760;48.822;9.304;2023-04-06T05:32:57;2.10;99.90
1534;DHT22;760;48.822;9.304;2023-04-06T05:35:23;2.30;99.90
1534;DHT22;760;48.822;9.304;2023-04-06T05:37:49;2.50;99.90
1534;DHT22;760;48.822;9.304;2023-04-06T05:40:15;2.60;99.90
1534;DHT22;760;48.822;9.304;2023-04-06T05:42:41;2.70;99.90
1534;DHT22;760;48.822;9.304;2023-04-06T05:45:08;2.60;99.90
1534;DHT22;760;48.822;9.304;2023-04-06T05:47:36;2.50;99.90
1534;DHT22;760;48.822;9.304;2023-04-06T05:50:02;2.40;99.90
1534;DHT22;760;48.822;9.304;2023-04-06T05:52:27;2.50;99.90
1534;DHT22;760;48.822;9.304;2023-04-06T05:54:53;2.60;99.90
1534;DHT22;760;48.822;9.304;2023-04-06T05:57:19;2.70;99.90
1534;DHT22;760;48.822;9.304;2023-04-06T05:59:45;2.80;99.90
1534;DHT22;760;48.822;9.304;2023-04-06T06:02:10;2.90;99.90
1534;DHT22;760;48.822;9.304;2023-04-06T06:04:36;3.00;99.90
1534;DHT22;760;48.822;9.304;2023-04-06T06:07:02;3.20;99.90
1534;DHT22;760;48.822;9.304;2023-04-06T06:09:27;3.50;99.90
1534;DHT22;760;48.822;9.304;2023-04-06T06:11:53;3.70;99.90
1534;DHT22;760;48.822;9.304;2023-04-06T06:14:19;3.90;99.90
1534;DHT22;760;48.822;9.304;2023-04-06T06:16:45;4.20;99.90
1534;DHT22;760;48.822;9.304;2023-04-06T06:19:11;4.30;99.90
1534;DHT22;760;48.822;9.304;2023-04-06T06:21:36;4.60;99.90
1534;DHT22;760;48.822;9.304;2023-04-06T06:24:02;4.80;99.50
1534;DHT22;760;48.822;9.304;2023-04-06T06:26:28;5.00;99.40
1534;DHT22;760;48.822;9.304;2023-04-06T06:28:53;5.20;98.20
1534;DHT22;760;48.822;9.304;2023-04-06T06:31:19;5.40;98.00
1534;DHT22;760;48.822;9.304;2023-04-06T06:33:48;5.60;97.40
1534;DHT22;760;48.822;9.304;2023-04-06T06:36:17;5.90;96.60
1534;DHT22;760;48.822;9.304;2023-04-06T06:38:43;5.90;95.70
1534;DHT22;760;48.822;9.304;2023-04-06T06:41:08;5.80;96.10
1534;DHT22;760;48.822;9.304;2023-04-06T06:43:34;5.90;95.90
1534;DHT22;760;48.822;9.304;2023-04-06T06:46:00;6.10;95.80
1534;DHT22;760;48.822;9.304;2023-04-06T06:48:26;6.30;95.30
1534;DHT22;760;48.822;9.304;2023-04-06T06:50:51;6.50;95.30
1534;DHT22;760;48.822;9.304;2023-04-06T06:53:17;6.70;94.70
1534;DHT22;760;48.822;9.304;2023-04-06T06:55:43;6.80;94.40
1534;DHT22;760;48.822;9.304;2023-04-06T06:58:09;6.90;93.90
1534;DHT22;760;48.822;9.304;2023-04-06T07:00:35;6.90;94.30
1534;DHT22;760;48.822;9.304;2023-04-06T07:03:01;7.10;94.10
1534;DHT22;760;48.822;9.304;2023-04-06T07:05:26;7.30;93.30
1534;DHT22;760;48.822;9.304;2023-04-06T07:07:53;7.70;93.00
1534;DHT22;760;48.822;9.304;2023-04-06T07:10:18;7.90;92.60
1534;DHT22;760;48.822;9.304;2023-04-06T07:12:44;8.30;92.40
1534;DHT22;760;48.822;9.304;2023-04-06T07:15:11;8.90;91.80
1534;DHT22;760;48.822;9.304;2023-04-06T07:17:37;9.50;90.40
1534;DHT22;760;48.822;9.304;2023-04-06T07:20:03;10.10;88.80
1534;DHT22;760;48.822;9.304;2023-04-06T07:22:29;10.70;86.80
1534;DHT22;760;48.822;9.304;2023-04-06T07:24:56;11.10;82.90
1534;DHT22;760;48.822;9.304;2023-04-06T07:27:21;11.60;82.50
1534;DHT22;760;48.822;9.304;2023-04-06T07:29:47;11.90;81.50
1534;DHT22;760;48.822;9.304;2023-04-06T07:32:13;12.10;79.10
1534;DHT22;760;48.822;9.304;2023-04-06T07:34:38;12.20;79.00
1534;DHT22;760;48.822;9.304;2023-04-06T07:37:04;12.20;77.40
1534;DHT22;760;48.822;9.304;2023-04-06T07:39:29;12.40;76.10
1534;DHT22;760;48.822;9.304;2023-04-06T07:41:55;12.50;75.20
1534;DHT22;760;48.822;9.304;2023-04-06T07:44:21;12.60;75.00
1534;DHT22;760;48.822;9.304;2023-04-06T07:46:46;12.70;74.30
1534;DHT22;760;48.822;9.304;2023-04-06T07:49:12;13.10;73.50
1534;DHT22;760;48.822;9.304;2023-04-06T07:51:38;13.70;72.40
1534;DHT22;760;48.822;9.304;2023-04-06T07:54:04;14.00;71.30
1534;DHT22;760;48.822;9.304;2023-04-06T07:56:30;14.20;70.80
1534;DHT22;760;48.822;9.304;2023-04-06T07:58:55;14.70;70.60
1534;DHT22;760;48.822;9.304;2023-04-06T08:01:22;15.40;67.50
1534;DHT22;760;48.822;9.304;2023-04-06T08:03:48;16.00;66.70
1534;DHT22;760;48.822;9.304;2023-04-06T08:06:14;16.90;63.40
1534;DHT22;760;48.822;9.304;2023-04-06T08:08:40;17.80;62.10
1534;DHT22;760;48.822;9.304;2023-04-06T08:11:06;18.30;59.30
1534;DHT22;760;48.822;9.304;2023-04-06T08:13:32;18.90;59.30
1534;DHT22;760;48.822;9.304;2023-04-06T08:15:58;19.70;57.10
1534;DHT22;760;48.822;9.304;2023-04-06T08:18:25;20.30;55.60
1534;DHT22;760;48.822;9.304;2023-04-06T08:20:51;20.80;55.30
1534;DHT22;760;48.822;9.304;2023-04-06T08:23:16;21.10;53.80
1534;DHT22;760;48.822;9.304;2023-04-06T08:25:42;21.00;54.20
1534;DHT22;760;48.822;9.304;2023-04-06T08:28:08;21.10;53.40
1534;DHT22;760;48.822;9.304;2023-04-06T08:30:35;20.80;52.70
1534;DHT22;760;48.822;9.304;2023-04-06T08:33:01;20.90;53.70
1534;DHT22;760;48.822;9.304;2023-04-06T08:35:27;21.00;52.20
1534;DHT22;760;48.822;9.304;2023-04-06T08:37:53;20.60;53.40
1534;DHT22;760;48.822;9.304;2023-04-06T08:40:18;20.50;52.30
1534;DHT22;760;48.822;9.304;2023-04-06T08:42:50;20.90;52.80
1534;DHT22;760;48.822;9.304;2023-04-06T08:45:17;21.30;51.90
1534;DHT22;760;48.822;9.304;2023-04-06T08:47:52;21.70;50.60
1534;DHT22;760;48.822;9.304;2023-04-06T08:50:20;22.00;50.80
1534;DHT22;760;48.822;9.304;2023-04-06T08:52:48;21.90;48.80
1534;DHT22;760;48.822;9.304;2023-04-06T08:55:15;22.00;49.60
1534;DHT22;760;48.822;9.304;2023-04-06T08:57:41;22.20;48.90
1534;DHT22;760;48.822;9.304;2023-04-06T09:00:10;22.60;48.20
1534;DHT22;760;48.822;9.304;2023-04-06T09:02:39;22.80;48.40
1534;DHT22;760;48.822;9.304;2023-04-06T09:05:09;22.90;47.80
1534;DHT22;760;48.822;9.304;2023-04-06T09:07:38;23.00;47.30
1534;DHT22;760;48.822;9.304;2023-04-06T09:10:05;23.40;46.90
1534;DHT22;760;48.822;9.304;2023-04-06T09:12:31;23.50;45.60
1534;DHT22;760;48.822;9.304;2023-04-06T09:14:58;23.30;45.10
1534;DHT22;760;48.822;9.304;2023-04-06T09:17:29;23.50;45.30
1534;DHT22;760;48.822;9.304;2023-04-06T09:19:55;23.80;45.50
1534;DHT22;760;48.822;9.304;2023-04-06T09:22:21;23.90;44.60
1534;DHT22;760;48.822;9.304;2023-04-06T09:24:50;24.20;44.30
1534;DHT22;760;48.822;9.304;2023-04-06T09:27:17;24.30;44.20
1534;DHT22;760;48.822;9.304;2023-04-06T09:29:44;24.20;43.80
1534;DHT22;760;48.822;9.304;2023-04-06T09:32:10;24.40;44.00
1534;DHT22;760;48.822;9.304;2023-04-06T09:34:39;24.60;43.60
1534;DHT22;760;48.822;9.304;2023-04-06T09:37:15;24.80;43.10
1534;DHT22;760;48.822;9.304;2023-04-06T09:39:41;24.70;42.70
1534;DHT22;760;48.822;9.304;2023-04-06T09:42:07;24.60;42.20
1534;DHT22;760;48.822;9.304;2023-04-06T09:44:33;24.50;42.80
1534;DHT22;760;48.822;9.304;2023-04-06T09:46:58;24.80;42.40
1534;DHT22;760;48.822;9.304;2023-04-06T09:49:27;25.00;41.00
1534;DHT22;760;48.822;9.304;2023-04-06T09:51:59;25.00;40.60
1534;DHT22;760;48.822;9.304;2023-04-06T09:54:29;24.90;40.70
1534;DHT22;760;48.822;9.304;2023-04-06T09:57:06;24.90;40.90
1534;DHT22;760;48.822;9.304;2023-04-06T10:00:05;24.50;40.80
1534;DHT22;760;48.822;9.304;2023-04-06T10:02:46;23.80;41.00
1534;DHT22;760;48.822;9.304;2023-04-06T10:08:06;23.60;40.90
1534;DHT22;760;48.822;9.304;2023-04-06T10:10:32;23.90;40.80
1534;DHT22;760;48.822;9.304;2023-04-06T10:12:58;23.40;40.00
1534;DHT22;760;48.822;9.304;2023-04-06T10:15:25;23.50;40.40
1534;DHT22;760;48.822;9.304;2023-04-06T10:17:51;23.20;40.30
1534;DHT22;760;48.822;9.304;2023-04-06T10:22:56;23.30;39.70
1534;DHT22;760;48.822;9.304;2023-04-06T10:25:28;23.60;39.50
1534;DHT22;760;48.822;9.304;2023-04-06T10:28:00;24.00;38.50
1534;DHT22;760;48.822;9.304;2023-04-06T10:30:26;24.00;38.10
1534;DHT22;760;48.822;9.304;2023-04-06T10:32:53;23.70;39.30
1534;DHT22;760;48.822;9.304;2023-04-06T10:35:18;23.30;41.00
1534;DHT22;760;48.822;9.304;2023-04-06T10:37:52;23.00;39.80
1534;DHT22;760;48.822;9.304;2023-04-06T10:40:23;23.00;39.00
1534;DHT22;760;48.822;9.304;2023-04-06T10:42:50;22.80;39.50
1534;DHT22;760;48.822;9.304;2023-04-06T10:45:26;22.00;41.30
1534;DHT22;760;48.822;9.304;2023-04-06T10:47:55;21.70;42.50
1534;DHT22;760;48.822;9.304;2023-04-06T10:50:21;21.90;43.20
1534;DHT22;760;48.822;9.304;2023-04-06T10:53:01;21.80;42.70
1534;DHT22;760;48.822;9.304;2023-04-06T10:55:28;21.70;42.60
1534;DHT22;760;48.822;9.304;2023-04-06T10:57:54;21.60;43.20
1534;DHT22;760;48.822;9.304;2023-04-06T11:00:20;21.20;41.70
1534;DHT22;760;48.822;9.304;2023-04-06T11:02:46;20.80;42.00
1534;DHT22;760;48.822;9.304;2023-04-06T11:05:13;20.40;41.00
1534;DHT22;760;48.822;9.304;2023-04-06T11:07:40;19.60;42.00
1534;DHT22;760;48.822;9.304;2023-04-06T11:10:07;19.50;41.80
1534;DHT22;760;48.822;9.304;2023-04-06T11:12:33;19.50;42.90
1534;DHT22;760;48.822;9.304;2023-04-06T11:15:01;18.90;44.80
1534;DHT22;760;48.822;9.304;2023-04-06T11:17:35;18.30;44.50
1534;DHT22;760;48.822;9.304;2023-04-06T11:20:03;17.60;46.10
1534;DHT22;760;48.822;9.304;2023-04-06T11:22:30;16.80;44.70
1534;DHT22;760;48.822;9.304;2023-04-06T11:25:08;16.30;46.00
1534;DHT22;760;48.822;9.304;2023-04-06T11:27:34;15.50;46.10
1534;DHT22;760;48.822;9.304;2023-04-06T11:30:02;15.20;46.20
1534;DHT22;760;48.822;9.304;2023-04-06T11:32:28;15.10;46.10
1534;DHT22;760;48.822;9.304;2023-04-06T11:34:54;15.00;47.00
1534;DHT22;760;48.822;9.304;2023-04-06T11:37:26;15.00;46.50
1534;DHT22;760;48.822;9.304;2023-04-06T11:39:54;14.80;45.30
1534;DHT22;760;48.822;9.304;2023-04-06T11:42:29;14.60;46.30
1534;DHT22;760;48.822;9.304;2023-04-06T11:44:59;14.60;46.10
1534;DHT22;760;48.822;9.304;2023-04-06T11:49:56;14.50;45.50
1534;DHT22;760;48.822;9.304;2023-04-06T11:52:28;14.50;46.30
1534;DHT22;760;48.822;9.304;2023-04-06T11:54:54;14.40;46.40
1534;DHT22;760;48.822;9.304;2023-04-06T11:57:22;14.30;45.60
1534;DHT22;760;48.822;9.304;2023-04-06T11:59:51;14.20;46.60
1534;DHT22;760;48.822;9.304;2023-04-06T12:02:17;14.20;44.30
1534;DHT22;760;48.822;9.304;2023-04-06T12:04:44;14.20;44.70
1534;DHT22;760;48.822;9.304;2023-04-06T12:07:10;14.20;45.80
1534;DHT22;760;48.822;9.304;2023-04-06T12:09:35;14.10;45.20
1534;DHT22;760;48.822;9.304;2023-04-06T12:12:02;14.10;44.40
1534;DHT22;760;48.822;9.304;2023-04-06T12:14:28;14.10;45.40
1534;DHT22;760;48.822;9.304;2023-04-06T12:16:53;14.20;45.10
1534;DHT22;760;48.822;9.304;2023-04-06T12:19:19;14.40;43.30
1534;DHT22;760;48.822;9.304;2023-04-06T12:21:45;14.40;43.80
1534;DHT22;760;48.822;9.304;2023-04-06T12:24:11;14.40;43.10
1534;DHT22;760;48.822;9.304;2023-04-06T12:26:36;14.20;44.00
1534;DHT22;760;48.822;9.304;2023-04-06T12:29:02;14.20;44.50
1534;DHT22;760;48.822;9.304;2023-04-06T12:31:34;14.20;44.70
1534;DHT22;760;48.822;9.304;2023-04-06T12:34:00;14.30;44.20
1534;DHT22;760;48.822;9.304;2023-04-06T12:36:27;14.30;43.50
1534;DHT22;760;48.822;9.304;2023-04-06T12:38:53;14.30;43.20
1534;DHT22;760;48.822;9.304;2023-04-06T12:41:19;14.40;44.00
1534;DHT22;760;48.822;9.304;2023-04-06T12:43:45;14.50;44.30
1534;DHT22;760;48.822;9.304;2023-04-06T12:46:12;14.70;44.50
1534;DHT22;760;48.822;9.304;2023-04-06T12:48:38;14.90;43.90
1534;DHT22;760;48.822;9.304;2023-04-06T12:51:05;14.80;43.80
1534;DHT22;760;48.822;9.304;2023-04-06T12:53:33;14.80;42.80
1534;DHT22;760;48.822;9.304;2023-04-06T12:55:58;14.80;43.20
1534;DHT22;760;48.822;9.304;2023-04-06T12:58:25;14.90;43.40
1534;DHT22;760;48.822;9.304;2023-04-06T13:00:55;14.90;44.60
1534;DHT22;760;48.822;9.304;2023-04-06T13:03:21;15.00;44.20
1534;DHT22;760;48.822;9.304;2023-04-06T13:05:48;15.10;43.50
1534;DHT22;760;48.822;9.304;2023-04-06T13:08:15;15.20;42.50
1534;DHT22;760;48.822;9.304;2023-04-06T13:10:44;15.10;42.00
1534;DHT22;760;48.822;9.304;2023-04-06T13:13:10;14.90;42.90
1534;DHT22;760;48.822;9.304;2023-04-06T13:15:36;14.70;42.90
1534;DHT22;760;48.822;9.304;2023-04-06T13:18:02;14.60;43.10
1534;DHT22;760;48.822;9.304;2023-04-06T13:20:28;14.60;43.90
1534;DHT22;760;48.822;9.304;2023-04-06T13:22:53;14.60;43.70
1534;DHT22;760;48.822;9.304;2023-04-06T13:25:21;14.50;43.10
1534;DHT22;760;48.822;9.304;2023-04-06T13:27:47;14.50;44.30
1534;DHT22;760;48.822;9.304;2023-04-06T13:30:14;14.50;43.80
1534;DHT22;760;48.822;9.304;2023-04-06T13:32:40;14.40;44.40
1534;DHT22;760;48.822;9.304;2023-04-06T13:35:06;14.30;43.70
1534;DHT22;760;48.822;9.304;2023-04-06T13:37:34;14.40;43.40
1534;DHT22;760;48.822;9.304;2023-04-06T13:40:02;14.30;43.20
1534;DHT22;760;48.822;9.304;2023-04-06T13:42:28;14.30;43.30
1534;DHT22;760;48.822;9.304;2023-04-06T13:44:53;14.30;43.60
1534;DHT22;760;48.822;9.304;2023-04-06T13:47:20;14.30;44.10
1534;DHT22;760;48.822;9.304;2023-04-06T13:49:46;14.30;44.20
1534;DHT22;760;48.822;9.304;2023-04-06T13:52:12;14.30;43.60
1534;DHT22;760;48.822;9.304;2023-04-06T13:54:38;14.40;43.50
1534;DHT22;760;48.822;9.304;2023-04-06T13:57:04;14.50;44.10
1534;DHT22;760;48.822;9.304;2023-04-06T13:59:36;14.60;44.00
1534;DHT22;760;48.822;9.304;2023-04-06T14:02:02;14.70;43.90
1534;DHT22;760;48.822;9.304;2023-04-06T14:04:29;14.70;43.70
1534;DHT22;760;48.822;9.304;2023-04-06T14:06:55;14.80;43.30
1534;DHT22;760;48.822;9.304;2023-04-06T14:09:20;14.90;43.40
1534;DHT22;760;48.822;9.304;2023-04-06T14:11:46;14.90;43.90
1534;DHT22;760;48.822;9.304;2023-04-06T14:14:12;15.00;44.00
1534;DHT22;760;48.822;9.304;2023-04-06T14:16:38;15.00;43.40
1534;DHT22;760;48.822;9.304;2023-04-06T14:19:03;15.00;42.70
1534;DHT22;760;48.822;9.304;2023-04-06T14:21:29;14.90;43.50
1534;DHT22;760;48.822;9.304;2023-04-06T14:23:56;15.00;43.20
1534;DHT22;760;48.822;9.304;2023-04-06T14:26:22;15.00;43.10
1534;DHT22;760;48.822;9.304;2023-04-06T14:28:48;15.00;42.90
1534;DHT22;760;48.822;9.304;2023-04-06T14:31:15;15.00;43.40
1534;DHT22;760;48.822;9.304;2023-04-06T14:33:42;15.20;43.50
1534;DHT22;760;48.822;9.304;2023-04-06T14:36:08;15.30;43.40
1534;DHT22;760;48.822;9.304;2023-04-06T14:38:34;15.40;43.00
1534;DHT22;760;48.822;9.304;2023-04-06T14:41:00;15.40;42.70
1534;DHT22;760;48.822;9.304;2023-04-06T14:43:26;15.30;42.90
1534;DHT22;760;48.822;9.304;2023-04-06T14:45:52;15.30;43.00
1534;DHT22;760;48.822;9.304;2023-04-06T14:48:18;15.20;43.40
1534;DHT22;760;48.822;9.304;2023-04-06T14:50:54;15.30;43.30
1534;DHT22;760;48.822;9.304;2023-04-06T14:53:20;15.20;42.90
1534;DHT22;760;48.822;9.304;2023-04-06T14:55:46;15.30;43.20
1534;DHT22;760;48.822;9.304;2023-04-06T14:58:12;15.30;43.20
1534;DHT22;760;48.822;9.304;2023-04-06T15:00:38;15.20;43.40
1534;DHT22;760;48.822;9.304;2023-04-06T15:03:04;15.20;43.20
1534;DHT22;760;48.822;9.304;2023-04-06T15:05:33;15.10;43.30
1534;DHT22;760;48.822;9.304;2023-04-06T15:07:58;15.00;43.40
1534;DHT22;760;48.822;9.304;2023-04-06T15:10:24;14.90;43.30
1534;DHT22;760;48.822;9.304;2023-04-06T15:12:50;14.80;44.20
1534;DHT22;760;48.822;9.304;2023-04-06T15:15:16;14.60;44.60
1534;DHT22;760;48.822;9.304;2023-04-06T15:17:42;14.60;45.30
1534;DHT22;760;48.822;9.304;2023-04-06T15:20:08;14.50;44.30
1534;DHT22;760;48.822;9.304;2023-04-06T15:22:33;14.40;44.20
1534;DHT22;760;48.822;9.304;2023-04-06T15:24:59;14.40;45.00
1534;DHT22;760;48.822;9.304;2023-04-06T15:27:24;14.30;44.50
1534;DHT22;760;48.822;9.304;2023-04-06T15:29:50;14.30;44.40
1534;DHT22;760;48.822;9.304;2023-04-06T15:32:16;14.30;44.70
1534;DHT22;760;48.822;9.304;2023-04-06T15:34:41;14.30;45.50
1534;DHT22;760;48.822;9.304;2023-04-06T15:37:07;14.40;45.60
1534;DHT22;760;48.822;9.304;2023-04-06T15:39:33;14.30;45.70
1534;DHT22;760;48.822;9.304;2023-04-06T15:41:59;14.40;45.00
1534;DHT22;760;48.822;9.304;2023-04-06T15:44:25;14.40;44.90
1534;DHT22;760;48.822;9.304;2023-04-06T15:46:51;14.50;45.40
1534;DHT22;760;48.822;9.304;2023-04-06T15:49:18;14.50;45.50
1534;DHT22;760;48.822;9.304;2023-04-06T15:51:47;14.50;45.80
1534;DHT22;760;48.822;9.304;2023-04-06T15:54:13;14.50;46.20
1534;DHT22;760;48.822;9.304;2023-04-06T15:56:38;14.40;46.80
1534;DHT22;760;48.822;9.304;2023-04-06T15:59:04;14.30;46.40
1534;DHT22;760;48.822;9.304;2023-04-06T16:01:30;14.30;45.60
1534;DHT22;760;48.822;9.304;2023-04-06T16:03:56;14.30;45.10
1534;DHT22;760;48.822;9.304;2023-04-06T16:06:21;14.30;44.80
1534;DHT22;760;48.822;9.304;2023-04-06T16:08:47;14.30;44.60
1534;DHT22;760;48.822;9.304;2023-04-06T16:11:13;14.30;44.90
1534;DHT22;760;48.822;9.304;2023-04-06T16:13:38;14.30;45.30
1534;DHT22;760;48.822;9.304;2023-04-06T16:16:04;14.30;46.00
1534;DHT22;760;48.822;9.304;2023-04-06T16:18:30;14.20;46.00
1534;DHT22;760;48.822;9.304;2023-04-06T16:20:56;14.10;46.30
1534;DHT22;760;48.822;9.304;2023-04-06T16:23:22;14.00;46.90
1534;DHT22;760;48.822;9.304;2023-04-06T16:25:48;14.00;46.70
1534;DHT22;760;48.822;9.304;2023-04-06T16:28:15;14.00;47.40
1534;DHT22;760;48.822;9.304;2023-04-06T16:30:41;13.80;47.30
1534;DHT22;760;48.822;9.304;2023-04-06T16:33:07;13.70;47.40
1534;DHT22;760;48.822;9.304;2023-04-06T16:35:32;13.70;46.90
1534;DHT22;760;48.822;9.304;2023-04-06T16:37:58;13.70;46.80
1534;DHT22;760;48.822;9.304;2023-04-06T16:40:25;13.60;47.10
1534;DHT22;760;48.822;9.304;2023-04-06T16:42:51;13.60;46.90
1534;DHT22;760;48.822;9.304;2023-04-06T16:45:17;13.60;48.00
1534;DHT22;760;48.822;9.304;2023-04-06T16:47:42;13.50;48.00
1534;DHT22;760;48.822;9.304;2023-04-06T16:50:08;13.50;47.90
1534;DHT22;760;48.822;9.304;2023-04-06T16:52:34;13.50;48.30
1534;DHT22;760;48.822;9.304;2023-04-06T16:55:00;13.40;48.60
1534;DHT22;760;48.822;9.304;2023-04-06T16:57:26;13.40;48.50
1534;DHT22;760;48.822;9.304;2023-04-06T16:59:57;13.30;49.00
1534;DHT22;760;48.822;9.304;2023-04-06T17:02:23;13.30;49.30
1534;DHT22;760;48.822;9.304;2023-04-06T17:04:49;13.20;50.20
1534;DHT22;760;48.822;9.304;2023-04-06T17:07:15;13.10;49.90
1534;DHT22;760;48.822;9.304;2023-04-06T17:09:40;13.10;50.40
1534;DHT22;760;48.822;9.304;2023-04-06T17:12:07;13.00;50.40
1534;DHT22;760;48.822;9.304;2023-04-06T17:14:33;13.00;50.40
1534;DHT22;760;48.822;9.304;2023-04-06T17:16:59;12.90;50.10
1534;DHT22;760;48.822;9.304;2023-04-06T17:19:25;12.90;50.60
1534;DHT22;760;48.822;9.304;2023-04-06T17:21:54;12.80;51.30
1534;DHT22;760;48.822;9.304;2023-04-06T17:24:20;12.80;51.80
1534;DHT22;760;48.822;9.304;2023-04-06T17:26:45;12.70;52.20
1534;DHT22;760;48.822;9.304;2023-04-06T17:29:11;12.60;52.40
1534;DHT22;760;48.822;9.304;2023-04-06T17:31:36;12.50;53.90
1534;DHT22;760;48.822;9.304;2023-04-06T17:34:02;12.50;56.10
1534;DHT22;760;48.822;9.304;2023-04-06T17:36:28;12.40;56.70
1534;DHT22;760;48.822;9.304;2023-04-06T17:38:53;12.40;56.10
1534;DHT22;760;48.822;9.304;2023-04-06T17:41:19;12.30;55.30
1534;DHT22;760;48.822;9.304;2023-04-06T17:43:46;12.20;55.20
1534;DHT22;760;48.822;9.304;2023-04-06T17:46:12;12.10;55.10
1534;DHT22;760;48.822;9.304;2023-04-06T17:48:38;12.00;55.00
1534;DHT22;760;48.822;9.304;2023-04-06T17:51:03;11.90;55.00
1534;DHT22;760;48.822;9.304;2023-04-06T17:53:29;11.90;55.00
1534;DHT22;760;48.822;9.304;2023-04-06T17:55:57;11.80;54.60
1534;DHT22;760;48.822;9.304;2023-04-06T17:58:22;11.80;55.10
1534;DHT22;760;48.822;9.304;2023-04-06T18:00:48;11.80;55.50
1534;DHT22;760;48.822;9.304;2023-04-06T18:03:14;11.70;54.90
1534;DHT22;760;48.822;9.304;2023-04-06T18:05:39;11.70;55.40
1534;DHT22;760;48.822;9.304;2023-04-06T18:08:05;11.60;55.00
1534;DHT22;760;48.822;9.304;2023-04-06T18:10:35;11.60;55.50
1534;DHT22;760;48.822;9.304;2023-04-06T18:13:01;11.60;55.70
1534;DHT22;760;48.822;9.304;2023-04-06T18:15:26;11.50;54.90
1534;DHT22;760;48.822;9.304;2023-04-06T18:17:52;11.50;54.40
1534;DHT22;760;48.822;9.304;2023-04-06T18:20:17;11.50;54.60
1534;DHT22;760;48.822;9.304;2023-04-06T18:22:43;11.50;54.70
1534;DHT22;760;48.822;9.304;2023-04-06T18:25:09;11.50;54.50
1534;DHT22;760;48.822;9.304;2023-04-06T18:27:34;11.50;54.30
1534;DHT22;760;48.822;9.304;2023-04-06T18:30:00;11.40;54.50
1534;DHT22;760;48.822;9.304;2023-04-06T18:32:26;11.40;55.00
1534;DHT22;760;48.822;9.304;2023-04-06T18:34:56;11.40;55.10
1534;DHT22;760;48.822;9.304;2023-04-06T18:37:25;11.30;55.60
1534;DHT22;760;48.822;9.304;2023-04-06T18:39:51;11.30;56.10
1534;DHT22;760;48.822;9.304;2023-04-06T18:42:18;11.30;56.80
1534;DHT22;760;48.822;9.304;2023-04-06T18:44:47;11.30;57.10
1534;DHT22;760;48.822;9.304;2023-04-06T18:47:12;11.20;57.90
1534;DHT22;760;48.822;9.304;2023-04-06T18:49:38;11.20;58.30
1534;DHT22;760;48.822;9.304;2023-04-06T18:52:04;11.10;58.90
1534;DHT22;760;48.822;9.304;2023-04-06T18:54:30;11.10;58.90
1534;DHT22;760;48.822;9.304;2023-04-06T18:56:56;11.10;59.50
1534;DHT22;760;48.822;9.304;2023-04-06T18:59:22;11.10;60.00
1534;DHT22;760;48.822;9.304;2023-04-06T19:01:48;11.10;61.00
1534;DHT22;760;48.822;9.304;2023-04-06T19:04:19;11.00;61.20
1534;DHT22;760;48.822;9.304;2023-04-06T19:06:44;11.00;61.70
1534;DHT22;760;48.822;9.304;2023-04-06T19:09:10;11.10;62.20
1534;DHT22;760;48.822;9.304;2023-04-06T19:11:36;11.00;62.60
1534;DHT22;760;48.822;9.304;2023-04-06T19:14:02;11.00;62.10
1534;DHT22;760;48.822;9.304;2023-04-06T19:16:28;11.10;61.70
1534;DHT22;760;48.822;9.304;2023-04-06T19:18:53;11.00;62.00
1534;DHT22;760;48.822;9.304;2023-04-06T19:21:21;11.00;62.10
1534;DHT22;760;48.822;9.304;2023-04-06T19:23:49;11.00;62.60
1534;DHT22;760;48.822;9.304;2023-04-06T19:26:16;11.00;62.40
1534;DHT22;760;48.822;9.304;2023-04-06T19:28:43;11.00;62.40
1534;DHT22;760;48.822;9.304;2023-04-06T19:31:11;10.90;62.90
1534;DHT22;760;48.822;9.304;2023-04-06T19:33:37;10.80;63.50
1534;DHT22;760;48.822;9.304;2023-04-06T19:36:04;10.80;63.00
1534;DHT22;760;48.822;9.304;2023-04-06T19:38:30;10.90;63.00
1534;DHT22;760;48.822;9.304;2023-04-06T19:40:57;10.90;63.10
1534;DHT22;760;48.822;9.304;2023-04-06T19:43:23;10.90;63.10
1534;DHT22;760;48.822;9.304;2023-04-06T19:45:49;10.90;62.90
1534;DHT22;760;48.822;9.304;2023-04-06T19:48:15;10.90;62.80
1534;DHT22;760;48.822;9.304;2023-04-06T19:50:41;10.90;62.30
1534;DHT22;760;48.822;9.304;2023-04-06T19:53:07;10.90;62.70
1534;DHT22;760;48.822;9.304;2023-04-06T19:55:34;10.80;62.60
1534;DHT22;760;48.822;9.304;2023-04-06T19:58:00;10.90;62.00
1534;DHT22;760;48.822;9.304;2023-04-06T20:00:26;10.80;61.40
1534;DHT22;760;48.822;9.304;2023-04-06T20:02:51;10.90;61.40
1534;DHT22;760;48.822;9.304;2023-04-06T20:05:17;10.90;62.20
1534;DHT22;760;48.822;9.304;2023-04-06T20:07:43;10.90;61.60
1534;DHT22;760;48.822;9.304;2023-04-06T20:10:08;10.90;61.30
1534;DHT22;760;48.822;9.304;2023-04-06T20:12:34;10.90;61.60
1534;DHT22;760;48.822;9.304;2023-04-06T20:15:00;10.90;62.00
1534;DHT22;760;48.822;9.304;2023-04-06T20:17:26;10.90;62.70
1534;DHT22;760;48.822;9.304;2023-04-06T20:19:51;10.80;63.10
1534;DHT22;760;48.822;9.304;2023-04-06T20:22:19;10.90;63.50
1534;DHT22;760;48.822;9.304;2023-04-06T20:24:45;10.80;63.60
1534;DHT22;760;48.822;9.304;2023-04-06T20:27:11;10.80;64.60